createdAt,value
2019-03-10T00:02:28.309Z,32.10
2019-03-10T00:04:57.993Z,25.03
2019-03-10T00:07:27.625Z,29.55
2019-03-10T00:09:57.289Z,24.80
2019-03-10T00:12:26.928Z,28.47
2019-03-10T00:14:56.600Z,33.53
2019-03-10T00:17:26.240Z,23.60
2019-03-10T00:19:55.983Z,22.30
2019-03-10T00:22:25.634Z,33.13
2019-03-10T00:24:55.270Z,35.50
2019-03-10T00:27:24.918Z,24.70
2019-03-10T00:29:54.582Z,33.67
2019-03-10T00:32:24.211Z,44.20
2019-03-10T00:34:53.887Z,35.97
2019-03-10T00:37:23.564Z,33.10
2019-03-10T00:39:58.930Z,34.30
2019-03-10T00:42:40.216Z,31.37
2019-03-10T00:45:35.850Z,32.73
2019-03-10T00:48:25.179Z,26.50
2019-03-10T00:51:26.665Z,32.87
2019-03-10T00:53:56.307Z,41.53
2019-03-10T00:56:25.952Z,29.13
2019-03-10T00:58:55.597Z,26.60
2019-03-10T01:01:25.251Z,25.67
2019-03-10T01:03:54.884Z,45.97
2019-03-10T01:06:24.614Z,24.10
2019-03-10T01:08:54.242Z,26.63
2019-03-10T01:11:23.957Z,23.93
2019-03-10T01:13:53.590Z,23.37
2019-03-10T01:16:23.316Z,27.70
2019-03-10T01:18:55.295Z,30.27
2019-03-10T01:21:27.046Z,26.10
2019-03-10T01:23:57.677Z,32.23
2019-03-10T01:26:27.342Z,29.93
2019-03-10T01:28:56.979Z,31.33
2019-03-10T01:31:46.256Z,26.63
2019-03-10T01:34:18.960Z,32.93
2019-03-10T01:36:48.597Z,35.00
2019-03-10T01:39:18.229Z,24.33
2019-03-10T01:41:47.913Z,25.90
2019-03-10T01:44:17.530Z,27.73
2019-03-10T01:46:47.174Z,26.40
2019-03-10T01:49:16.817Z,31.97
2019-03-10T01:51:46.459Z,45.17
2019-03-10T01:54:16.195Z,29.60
2019-03-10T01:56:45.944Z,41.40
2019-03-10T01:59:15.587Z,27.37
2019-03-10T02:01:45.261Z,29.33
2019-03-10T02:04:14.969Z,19.80
2019-03-10T02:06:44.643Z,24.85
2019-03-10T02:09:14.363Z,35.95
2019-03-10T02:11:44.044Z,31.27
2019-03-10T02:14:13.674Z,25.17
2019-03-10T02:16:43.341Z,30.77
2019-03-10T02:19:12.991Z,39.70
2019-03-10T02:21:42.626Z,33.47
2019-03-10T02:24:12.279Z,24.27
2019-03-10T02:26:41.919Z,28.60
2019-03-10T02:29:11.572Z,29.17
2019-03-10T02:31:41.214Z,25.03
2019-03-10T02:34:10.860Z,21.47
2019-03-10T02:36:40.490Z,24.17
2019-03-10T02:39:10.227Z,29.93
2019-03-10T02:41:39.844Z,35.57
2019-03-10T02:44:09.492Z,20.73
2019-03-10T02:46:39.146Z,25.03
2019-03-10T02:49:08.801Z,28.80
2019-03-10T02:51:38.464Z,29.15
2019-03-10T02:54:08.110Z,31.70
2019-03-10T02:56:37.736Z,20.33
2019-03-10T02:59:07.401Z,21.93
2019-03-10T03:01:37.130Z,27.17
2019-03-10T03:04:06.783Z,23.53
2019-03-10T03:06:36.411Z,28.37
2019-03-10T03:09:07.049Z,29.15
2019-03-10T03:11:36.876Z,33.40
2019-03-10T03:14:06.745Z,22.87
2019-03-10T03:16:36.625Z,27.40
2019-03-10T03:19:06.482Z,27.63
2019-03-10T03:21:42.999Z,28.57
2019-03-10T03:24:08.204Z,29.87
2019-03-10T03:26:37.845Z,31.90
2019-03-10T03:29:07.514Z,29.65
2019-03-10T03:31:37.160Z,30.15
2019-03-10T03:34:06.851Z,35.23
2019-03-10T03:36:37.016Z,37.80
2019-03-10T03:39:18.861Z,23.07
2019-03-10T03:41:48.570Z,27.13
2019-03-10T03:44:18.229Z,33.20
2019-03-10T03:46:47.873Z,27.50
2019-03-10T03:49:23.391Z,28.33
2019-03-10T03:51:53.028Z,22.90
2019-03-10T03:54:22.673Z,25.17
2019-03-10T03:56:52.308Z,26.33
2019-03-10T03:59:22.800Z,32.53
2019-03-10T04:01:56.883Z,35.83
2019-03-10T04:04:26.535Z,33.23
2019-03-10T04:06:56.164Z,37.27
2019-03-10T04:09:25.807Z,30.85
2019-03-10T04:11:55.448Z,37.83
2019-03-10T04:14:25.517Z,28.80
2019-03-10T04:16:55.122Z,39.17
2019-03-10T04:19:24.868Z,24.50
2019-03-10T04:21:54.497Z,19.97
2019-03-10T04:24:24.162Z,28.42
2019-03-10T04:26:53.851Z,38.02
2019-03-10T04:29:23.511Z,31.40
2019-03-10T04:31:53.150Z,27.30
2019-03-10T04:34:22.790Z,34.57
2019-03-10T04:36:52.480Z,36.53
2019-03-10T04:39:22.127Z,24.17
2019-03-10T04:41:51.784Z,22.57
2019-03-10T04:44:21.422Z,31.63
2019-03-10T04:46:51.058Z,24.27
2019-03-10T04:49:20.718Z,18.60
2019-03-10T04:51:50.339Z,26.00
2019-03-10T04:54:21.707Z,25.57
2019-03-10T04:56:53.020Z,25.88
2019-03-10T04:59:22.736Z,23.33
2019-03-10T05:01:52.370Z,22.97
2019-03-10T05:04:22.032Z,28.10
2019-03-10T05:06:51.670Z,12.00
2019-03-10T05:09:21.311Z,28.63
2019-03-10T05:11:50.943Z,21.53
2019-03-10T05:14:20.605Z,22.50
2019-03-10T05:16:50.246Z,20.77
2019-03-10T05:19:19.899Z,21.00
2019-03-10T05:21:49.645Z,28.67
2019-03-10T05:24:19.293Z,26.07
2019-03-10T05:26:48.947Z,19.30
2019-03-10T05:29:18.570Z,24.57
2019-03-10T05:31:48.228Z,30.13
2019-03-10T05:34:17.858Z,20.53
2019-03-10T05:36:53.122Z,24.50
2019-03-10T05:39:22.761Z,30.23
2019-03-10T05:41:52.399Z,28.53
2019-03-10T05:44:22.033Z,25.73
2019-03-10T05:46:52.719Z,24.07
2019-03-10T05:49:22.349Z,23.33
2019-03-10T05:51:51.995Z,17.20
2019-03-10T05:54:21.640Z,25.70
2019-03-10T05:56:51.368Z,25.80
2019-03-10T05:59:20.989Z,19.07
2019-03-10T06:01:50.676Z,24.97
2019-03-10T06:04:20.306Z,16.67
2019-03-10T06:06:50.022Z,36.40
2019-03-10T06:09:19.652Z,24.63
2019-03-10T06:11:49.307Z,22.53
2019-03-10T06:14:18.987Z,20.43
2019-03-10T06:16:48.623Z,25.13
2019-03-10T06:19:18.263Z,13.80
2019-03-10T06:21:47.944Z,12.47
2019-03-10T06:24:17.572Z,18.90
2019-03-10T06:26:47.225Z,25.97
2019-03-10T06:29:16.870Z,27.57
2019-03-10T06:31:46.552Z,17.50
2019-03-10T06:34:16.157Z,19.20
2019-03-10T06:36:45.873Z,22.47
2019-03-10T06:39:15.529Z,26.37
2019-03-10T06:41:46.135Z,19.20
2019-03-10T06:44:15.784Z,31.83
2019-03-10T06:46:45.436Z,28.03
2019-03-10T06:49:15.109Z,20.50
2019-03-10T06:51:44.748Z,16.57
2019-03-10T06:54:14.390Z,17.90
2019-03-10T06:56:44.037Z,13.23
2019-03-10T06:59:13.671Z,23.37
2019-03-10T07:01:43.318Z,14.70
2019-03-10T07:04:13.958Z,21.93
2019-03-10T07:06:43.601Z,26.33
2019-03-10T07:09:13.331Z,31.33
2019-03-10T07:11:42.981Z,31.07
2019-03-10T07:14:12.614Z,27.03
2019-03-10T07:16:42.257Z,28.40
2019-03-10T07:19:11.890Z,28.03
2019-03-10T07:21:41.529Z,31.23
2019-03-10T07:24:11.154Z,19.83
2019-03-10T07:26:40.800Z,20.93
2019-03-10T07:29:17.919Z,21.73
2019-03-10T07:31:58.229Z,21.77
2019-03-10T07:34:29.520Z,16.73
2019-03-10T07:37:16.910Z,27.17
2019-03-10T07:39:48.196Z,17.10
2019-03-10T07:42:31.690Z,17.67
2019-03-10T07:45:05.908Z,25.10
2019-03-10T07:47:40.305Z,21.67
2019-03-10T07:50:20.601Z,25.27
2019-03-10T07:52:51.897Z,22.23
2019-03-10T07:55:23.169Z,21.27
2019-03-10T07:58:00.453Z,24.23
2019-03-10T08:00:31.726Z,18.90
2019-03-10T08:03:03.017Z,21.63
2019-03-10T08:05:36.966Z,25.73
2019-03-10T08:08:11.004Z,27.87
2019-03-10T08:10:45.199Z,18.40
2019-03-10T08:13:31.787Z,15.13
2019-03-10T08:16:03.075Z,34.80
2019-03-10T08:18:37.033Z,9.33
2019-03-10T08:21:26.626Z,14.63
2019-03-10T08:23:57.930Z,17.23
2019-03-10T08:26:32.166Z,17.37
2019-03-10T08:29:21.725Z,21.17
2019-03-10T08:31:55.714Z,19.57
2019-03-10T08:34:27.006Z,21.20
2019-03-10T08:37:14.753Z,21.40
2019-03-10T08:39:49.023Z,20.47
2019-03-10T08:42:32.358Z,16.43
2019-03-10T08:45:12.333Z,22.87
2019-03-10T08:47:43.622Z,19.57
2019-03-10T08:50:14.892Z,20.97
2019-03-10T08:52:52.226Z,15.80
2019-03-10T08:55:26.202Z,15.37
2019-03-10T08:58:13.658Z,16.27
2019-03-10T09:00:50.976Z,18.80
2019-03-10T09:03:22.334Z,11.27
2019-03-10T09:05:53.614Z,19.57
2019-03-10T09:08:24.911Z,22.13
2019-03-10T09:11:02.349Z,17.50
2019-03-10T09:13:36.445Z,19.77
2019-03-10T09:16:23.852Z,21.53
2019-03-10T09:18:55.140Z,19.13
2019-03-10T09:21:32.447Z,20.93
2019-03-10T09:24:06.631Z,13.80
2019-03-10T09:26:54.110Z,18.37
2019-03-10T09:29:25.487Z,14.47
2019-03-10T09:32:02.438Z,14.73
2019-03-10T09:34:48.721Z,14.93
2019-03-10T09:37:29.030Z,11.43
2019-03-10T09:40:16.575Z,14.47
2019-03-10T09:42:56.822Z,12.87
2019-03-10T09:45:44.027Z,14.97
2019-03-10T09:48:15.384Z,14.57
2019-03-10T09:50:55.727Z,15.73
2019-03-10T09:53:30.153Z,14.33
2019-03-10T09:56:10.915Z,12.87
2019-03-10T09:58:50.899Z,18.53
2019-03-10T10:01:24.876Z,21.13
2019-03-10T10:03:56.135Z,17.07
2019-03-10T10:06:27.416Z,13.70
2019-03-10T10:08:58.684Z,17.37
2019-03-10T10:11:38.921Z,16.83
2019-03-10T10:14:10.562Z,13.47
2019-03-10T10:16:42.023Z,15.37
2019-03-10T10:19:29.985Z,9.33
2019-03-10T10:22:17.040Z,14.93
2019-03-10T10:25:06.340Z,13.00
2019-03-10T10:27:43.323Z,15.33
2019-03-10T10:30:15.024Z,22.93
2019-03-10T10:32:46.292Z,11.77
2019-03-10T10:35:17.576Z,18.83
2019-03-10T10:37:54.437Z,13.87
2019-03-10T10:40:25.737Z,9.10
2019-03-10T10:43:12.300Z,13.83
2019-03-10T10:45:49.335Z,18.57
2019-03-10T10:48:20.688Z,10.30
2019-03-10T10:50:51.976Z,15.40
2019-03-10T10:53:26.274Z,18.30
2019-03-10T10:56:03.342Z,13.97
2019-03-10T10:58:40.392Z,14.17
2019-03-10T11:01:28.158Z,14.53
2019-03-10T11:04:17.948Z,8.80
2019-03-10T11:07:05.332Z,12.63
2019-03-10T11:09:36.622Z,12.03
2019-03-10T11:12:19.883Z,10.27
2019-03-10T11:14:56.885Z,6.37
2019-03-10T11:17:28.187Z,15.03
2019-03-10T11:19:59.491Z,13.70
2019-03-10T11:22:30.805Z,19.23
2019-03-10T11:25:04.776Z,14.23
2019-03-10T11:27:36.069Z,16.37
2019-03-10T11:30:10.970Z,12.93
2019-03-10T11:32:45.218Z,12.00
2019-03-10T11:35:22.371Z,10.77
2019-03-10T11:37:59.361Z,10.03
2019-03-10T11:40:36.420Z,16.07
2019-03-10T11:43:10.458Z,15.03
2019-03-10T11:45:53.671Z,10.03
2019-03-10T11:48:27.691Z,22.50
2019-03-10T11:51:10.641Z,8.53
2019-03-10T11:53:41.910Z,13.20
2019-03-10T11:56:18.904Z,12.97
2019-03-10T11:58:52.940Z,13.07
2019-03-10T12:01:24.205Z,14.87
2019-03-10T12:04:01.304Z,24.60
2019-03-10T12:06:32.674Z,12.00
2019-03-10T12:09:03.968Z,12.37
2019-03-10T12:11:33.594Z,9.23
2019-03-10T12:14:03.377Z,11.43
2019-03-10T12:16:33.083Z,7.60
2019-03-10T12:19:02.720Z,8.57
2019-03-10T12:21:32.418Z,14.90
2019-03-10T12:24:02.165Z,12.17
2019-03-10T12:26:31.782Z,19.97
2019-03-10T12:29:01.436Z,10.87
2019-03-10T12:31:31.050Z,8.80
2019-03-10T12:34:00.710Z,11.27
2019-03-10T12:36:35.565Z,10.27
2019-03-10T12:39:07.313Z,16.70
2019-03-10T12:41:36.946Z,8.47
2019-03-10T12:44:06.594Z,7.83
2019-03-10T12:46:43.241Z,17.73
2019-03-10T12:49:12.899Z,9.00
2019-03-10T12:51:42.540Z,11.83
2019-03-10T12:54:12.360Z,12.57
2019-03-10T12:56:41.995Z,7.53
2019-03-10T12:59:11.661Z,13.07
2019-03-10T13:01:41.300Z,6.93
2019-03-10T13:04:10.957Z,8.13
2019-03-10T13:06:40.576Z,9.73
2019-03-10T13:09:11.071Z,9.07
2019-03-10T13:11:40.702Z,5.63
2019-03-10T13:14:10.399Z,8.23
2019-03-10T13:16:40.037Z,10.13
2019-03-10T13:19:09.765Z,8.03
2019-03-10T13:21:39.460Z,9.07
2019-03-10T13:24:09.105Z,8.03
2019-03-10T13:26:38.765Z,11.73
2019-03-10T13:29:08.442Z,5.17
2019-03-10T13:31:38.227Z,9.73
2019-03-10T13:34:07.847Z,5.70
2019-03-10T13:36:37.493Z,7.77
2019-03-10T13:39:07.455Z,5.80
2019-03-10T13:41:37.093Z,9.20
2019-03-10T13:44:06.715Z,8.70
2019-03-10T13:46:36.367Z,5.80
2019-03-10T13:49:06.044Z,10.53
2019-03-10T13:51:35.634Z,13.80
2019-03-10T13:54:06.412Z,10.00
2019-03-10T13:56:36.054Z,11.83
2019-03-10T13:59:05.683Z,6.37
2019-03-10T14:01:35.331Z,10.50
2019-03-10T14:04:05.042Z,16.43
2019-03-10T14:06:34.691Z,7.50
2019-03-10T14:09:06.127Z,7.00
2019-03-10T14:11:35.768Z,5.27
2019-03-10T14:14:05.395Z,16.87
2019-03-10T14:16:35.466Z,13.23
2019-03-10T14:19:05.235Z,13.43
2019-03-10T14:21:35.432Z,9.77
2019-03-10T14:24:05.214Z,8.40
2019-03-10T14:26:34.897Z,10.90
2019-03-10T14:29:04.786Z,11.73
2019-03-10T14:31:34.466Z,12.97
2019-03-10T14:34:04.172Z,8.20
2019-03-10T14:36:34.229Z,17.47
2019-03-10T14:39:05.380Z,13.20
2019-03-10T14:41:36.570Z,11.17
2019-03-10T14:44:06.287Z,12.77
2019-03-10T14:46:35.940Z,11.93
2019-03-10T14:49:05.644Z,9.83
2019-03-10T14:51:35.287Z,14.63
2019-03-10T14:54:04.943Z,13.40
2019-03-10T14:56:34.747Z,9.93
2019-03-10T14:59:04.767Z,9.37
2019-03-10T15:01:34.475Z,7.13
2019-03-10T15:04:04.192Z,12.93
2019-03-10T15:06:34.198Z,11.87
2019-03-10T15:09:05.273Z,9.33
2019-03-10T15:11:34.929Z,28.53
2019-03-10T15:14:04.705Z,26.43
2019-03-10T15:16:34.333Z,17.27
2019-03-10T15:19:04.005Z,13.90
2019-03-10T15:21:33.836Z,11.73
2019-03-10T15:24:03.960Z,12.93
2019-03-10T15:26:33.667Z,20.03
2019-03-10T15:29:03.520Z,11.93
2019-03-10T15:31:33.146Z,13.13
2019-03-10T15:34:02.853Z,11.63
2019-03-10T15:36:32.500Z,13.33
2019-03-10T15:39:02.161Z,17.33
2019-03-10T15:41:31.790Z,17.67
2019-03-10T15:44:01.526Z,15.50
2019-03-10T15:46:31.436Z,15.47
2019-03-10T15:49:01.870Z,20.17
2019-03-10T15:51:31.651Z,15.33
2019-03-10T15:54:01.469Z,13.87
2019-03-10T15:56:31.145Z,17.10
2019-03-10T15:59:00.856Z,12.17
2019-03-10T16:01:30.597Z,12.90
2019-03-10T16:04:04.342Z,11.47
2019-03-10T16:06:34.240Z,12.37
2019-03-10T16:09:05.181Z,9.47
2019-03-10T16:11:34.880Z,20.93
2019-03-10T16:14:04.560Z,11.90
2019-03-10T16:16:34.230Z,9.97
2019-03-10T16:19:03.889Z,20.30
2019-03-10T16:21:33.521Z,14.67
2019-03-10T16:24:03.171Z,7.43
2019-03-10T16:26:32.837Z,14.83
2019-03-10T16:29:02.474Z,17.03
2019-03-10T16:31:32.124Z,11.73
2019-03-10T16:34:01.793Z,9.53
2019-03-10T16:36:31.495Z,14.90
2019-03-10T16:39:01.178Z,8.13
2019-03-10T16:41:30.818Z,15.53
2019-03-10T16:44:00.460Z,10.73
2019-03-10T16:46:30.108Z,10.00
2019-03-10T16:48:59.780Z,11.60
2019-03-10T16:51:29.435Z,12.50
2019-03-10T16:53:59.134Z,11.10
2019-03-10T16:56:31.672Z,12.00
2019-03-10T16:59:01.314Z,13.00
2019-03-10T17:01:30.970Z,13.67
2019-03-10T17:04:00.616Z,13.87
2019-03-10T17:06:36.554Z,6.30
2019-03-10T17:09:15.071Z,17.87
2019-03-10T17:11:48.031Z,7.57
2019-03-10T17:14:17.651Z,15.17
2019-03-10T17:16:47.300Z,6.00
2019-03-10T17:19:16.923Z,14.63
2019-03-10T17:21:46.578Z,14.57
2019-03-10T17:24:16.204Z,14.27
2019-03-10T17:26:49.097Z,9.67
2019-03-10T17:29:18.721Z,6.73
2019-03-10T17:31:48.359Z,15.97
2019-03-10T17:34:17.998Z,16.03
2019-03-10T17:36:51.406Z,18.57
2019-03-10T17:39:21.021Z,24.47
2019-03-10T17:41:50.680Z,10.20
2019-03-10T17:44:20.305Z,15.27
2019-03-10T17:46:49.962Z,11.97
2019-03-10T17:49:19.648Z,20.33
2019-03-10T17:51:49.358Z,4.23
2019-03-10T17:54:19.081Z,10.40
2019-03-10T17:56:48.934Z,15.97
2019-03-10T17:59:18.665Z,16.80
2019-03-10T18:01:48.492Z,14.30
2019-03-10T18:04:18.068Z,14.00
2019-03-10T18:06:47.728Z,14.63
2019-03-10T18:09:17.397Z,9.87
2019-03-10T18:11:47.059Z,18.63
2019-03-10T18:14:16.697Z,12.73
2019-03-10T18:16:46.334Z,17.43
2019-03-10T18:19:15.990Z,16.37
2019-03-10T18:21:45.668Z,17.37
2019-03-10T18:24:15.320Z,11.63
2019-03-10T18:26:44.964Z,9.90
2019-03-10T18:29:14.633Z,18.10
2019-03-10T18:31:44.762Z,9.77
2019-03-10T18:34:14.664Z,9.43
2019-03-10T18:36:44.310Z,12.37
2019-03-10T18:39:14.187Z,11.37
2019-03-10T18:41:43.903Z,10.60
2019-03-10T18:44:13.555Z,14.07
2019-03-10T18:46:45.256Z,11.87
2019-03-10T18:49:14.980Z,11.23
2019-03-10T18:51:44.631Z,9.70
2019-03-10T18:54:14.301Z,8.63
2019-03-10T18:56:44.072Z,10.80
2019-03-10T18:59:13.879Z,13.27
2019-03-10T19:01:43.511Z,11.80
2019-03-10T19:04:13.487Z,11.47
2019-03-10T19:06:43.198Z,15.43
2019-03-10T19:09:12.854Z,15.37
2019-03-10T19:11:42.485Z,24.90
2019-03-10T19:14:12.162Z,12.53
2019-03-10T19:16:41.785Z,10.30
2019-03-10T19:19:11.438Z,17.63
2019-03-10T19:21:41.148Z,17.07
2019-03-10T19:24:10.809Z,16.63
2019-03-10T19:26:40.496Z,9.07
2019-03-10T19:29:10.217Z,11.73
2019-03-10T19:31:39.858Z,10.63
2019-03-10T19:34:09.518Z,15.30
2019-03-10T19:36:39.271Z,11.40
2019-03-10T19:39:08.932Z,10.23
2019-03-10T19:41:38.579Z,12.13
2019-03-10T19:44:08.248Z,22.87
2019-03-10T19:46:37.871Z,11.57
2019-03-10T19:49:07.814Z,12.77
2019-03-10T19:51:37.471Z,8.57
2019-03-10T19:54:07.156Z,12.47
2019-03-10T19:56:36.801Z,10.17
2019-03-10T19:59:06.501Z,7.30
2019-03-10T20:01:36.183Z,10.07
2019-03-10T20:04:05.920Z,13.03
2019-03-10T20:06:35.619Z,14.67
2019-03-10T20:09:07.135Z,13.43
2019-03-10T20:11:36.847Z,20.17
2019-03-10T20:14:06.846Z,9.90
2019-03-10T20:16:36.562Z,12.63
2019-03-10T20:19:06.446Z,15.50
2019-03-10T20:21:36.133Z,8.50
2019-03-10T20:24:05.889Z,6.87
2019-03-10T20:26:35.608Z,12.57
2019-03-10T20:29:05.341Z,10.63
2019-03-10T20:31:35.084Z,6.97
2019-03-10T20:34:04.811Z,13.67
2019-03-10T20:36:34.620Z,10.43
2019-03-10T20:39:05.969Z,9.83
2019-03-10T20:41:35.702Z,10.13
2019-03-10T20:44:05.486Z,9.90
2019-03-10T20:46:35.376Z,18.90
2019-03-10T20:49:05.291Z,13.00
2019-03-10T20:51:35.045Z,7.27
2019-03-10T20:54:05.761Z,19.03
2019-03-10T20:56:35.477Z,10.00
2019-03-10T20:59:05.407Z,10.47
2019-03-10T21:01:35.189Z,6.63
2019-03-10T21:04:04.987Z,4.07
2019-03-10T21:06:35.192Z,10.53
2019-03-10T21:09:07.221Z,20.13
2019-03-10T21:11:36.934Z,13.33
2019-03-10T21:14:06.719Z,4.07
2019-03-10T21:16:36.758Z,12.23
2019-03-10T21:19:07.414Z,10.67
2019-03-10T21:21:37.091Z,9.60
2019-03-10T21:24:06.977Z,12.47
2019-03-10T21:26:36.633Z,8.33
2019-03-10T21:29:06.533Z,9.03
2019-03-10T21:31:36.193Z,6.83
2019-03-10T21:34:05.846Z,7.07
2019-03-10T21:36:35.503Z,8.50
2019-03-10T21:39:06.407Z,4.97
2019-03-10T21:41:36.080Z,10.93
2019-03-10T21:44:05.704Z,4.43
2019-03-10T21:46:35.378Z,20.27
2019-03-10T21:49:06.084Z,10.87
2019-03-10T21:51:35.784Z,10.77
2019-03-10T21:54:05.466Z,10.90
2019-03-10T21:56:35.223Z,9.50
2019-03-10T21:59:04.955Z,8.63
2019-03-10T22:01:34.635Z,11.73
2019-03-10T22:04:04.338Z,9.03
2019-03-10T22:06:34.029Z,11.40
2019-03-10T22:09:04.811Z,8.97
2019-03-10T22:11:34.564Z,7.83
2019-03-10T22:14:04.374Z,5.57
2019-03-10T22:16:34.081Z,5.40
2019-03-10T22:19:03.805Z,5.63
2019-03-10T22:21:33.602Z,6.93
2019-03-10T22:24:03.415Z,4.63
2019-03-10T22:26:33.098Z,9.13
2019-03-10T22:29:02.822Z,6.17
2019-03-10T22:31:33.594Z,5.10
2019-03-10T22:34:03.358Z,10.50
2019-03-10T22:36:33.016Z,9.33
2019-03-10T22:39:02.761Z,4.63
2019-03-10T22:41:33.527Z,9.43
2019-03-10T22:44:03.235Z,6.40
2019-03-10T22:46:32.945Z,5.97
2019-03-10T22:49:02.655Z,5.77
2019-03-10T22:51:32.350Z,5.83
2019-03-10T22:54:02.079Z,6.67
2019-03-10T22:56:31.768Z,5.33
2019-03-10T22:59:01.508Z,6.57
2019-03-10T23:01:31.283Z,9.47
2019-03-10T23:04:01.024Z,5.90
2019-03-10T23:06:30.708Z,9.13
2019-03-10T23:09:00.426Z,4.70
2019-03-10T23:11:30.139Z,6.97
2019-03-10T23:13:59.848Z,6.03
2019-03-10T23:16:29.572Z,4.87
2019-03-10T23:18:59.475Z,4.03
2019-03-10T23:21:29.235Z,11.47
2019-03-10T23:23:59.009Z,8.53
2019-03-10T23:26:28.701Z,4.47
2019-03-10T23:28:58.379Z,5.03
2019-03-10T23:31:28.142Z,8.13
2019-03-10T23:33:57.839Z,3.10
2019-03-10T23:36:27.570Z,11.97
2019-03-10T23:38:57.290Z,11.60
2019-03-10T23:41:27.408Z,6.43
2019-03-10T23:43:57.123Z,6.00
2019-03-10T23:46:26.855Z,5.43
2019-03-10T23:48:56.554Z,12.47
2019-03-10T23:51:26.282Z,10.30
2019-03-10T23:53:55.988Z,8.90
2019-03-10T23:56:25.709Z,8.20
2019-03-10T23:58:55.404Z,13.83
